createdAt,value
2023-04-30T00:03:52.883Z,8.20
2023-04-30T00:08:55.738Z,8.63
2023-04-30T00:13:58.373Z,9.03
2023-04-30T00:19:00.829Z,7.53
2023-04-30T00:24:03.899Z,10.30
2023-04-30T00:29:07.016Z,10.17
2023-04-30T00:34:09.805Z,10.67
2023-04-30T00:39:12.647Z,9.83
2023-04-30T00:44:15.324Z,8.93
2023-04-30T00:49:18.320Z,8.63
2023-04-30T00:54:21.592Z,8.93
2023-04-30T00:59:25.006Z,8.00
2023-04-30T01:04:28.773Z,8.77
2023-04-30T01:09:31.934Z,8.60
2023-04-30T01:14:40.077Z,9.97
2023-04-30T01:19:45.969Z,11.53
2023-04-30T01:24:55.176Z,8.10
2023-04-30T01:29:58.380Z,7.30
2023-04-30T01:35:03.201Z,7.87
2023-04-30T01:40:14.590Z,10.03
2023-04-30T01:45:54.286Z,8.77
2023-04-30T01:51:09.944Z,9.60
2023-04-30T01:56:38.079Z,7.10
2023-04-30T02:01:41.029Z,7.13
2023-04-30T02:06:43.677Z,7.20
2023-04-30T02:11:46.192Z,9.33
2023-04-30T02:16:48.633Z,8.87
2023-04-30T02:21:51.314Z,7.10
2023-04-30T02:26:53.802Z,5.87
2023-04-30T02:31:59.110Z,8.77
2023-04-30T02:37:03.167Z,9.13
2023-04-30T02:42:06.984Z,7.00
2023-04-30T02:47:09.531Z,7.80
2023-04-30T02:52:12.372Z,6.87
2023-04-30T02:57:15.017Z,7.00
2023-04-30T03:02:21.455Z,6.73
2023-04-30T03:07:24.054Z,7.27
2023-04-30T03:12:26.515Z,6.93
2023-04-30T03:17:29.199Z,8.17
2023-04-30T03:22:31.805Z,7.23
2023-04-30T03:27:34.289Z,6.53
2023-04-30T03:32:36.861Z,7.73
2023-04-30T03:37:39.341Z,8.30
2023-04-30T03:42:41.875Z,7.07
2023-04-30T03:47:44.543Z,6.30
2023-04-30T03:52:47.170Z,7.23
2023-04-30T03:57:51.695Z,5.40
2023-04-30T04:02:55.049Z,7.30
2023-04-30T04:07:57.520Z,6.30
2023-04-30T04:13:00.060Z,5.80
2023-04-30T04:18:02.732Z,6.77
2023-04-30T04:23:05.625Z,8.20
2023-04-30T04:28:08.195Z,6.47
2023-04-30T04:33:11.781Z,6.03
2023-04-30T04:38:14.345Z,6.70
2023-04-30T04:43:17.205Z,6.07
2023-04-30T04:48:20.120Z,6.67
2023-04-30T04:53:22.648Z,6.57
2023-04-30T04:58:25.309Z,5.00
2023-04-30T05:03:29.850Z,6.53
2023-04-30T05:08:32.581Z,6.70
2023-04-30T05:13:35.172Z,5.60
2023-04-30T05:18:37.567Z,4.90
2023-04-30T05:23:39.988Z,4.90
2023-04-30T05:28:42.494Z,4.47
2023-04-30T05:33:45.048Z,6.30
2023-04-30T05:38:47.614Z,5.37
2023-04-30T05:43:50.076Z,4.10
2023-04-30T05:48:52.384Z,4.73
2023-04-30T05:53:54.792Z,3.90
2023-04-30T05:58:57.307Z,3.67
2023-04-30T06:04:01.372Z,3.97
2023-04-30T06:09:03.843Z,4.10
2023-04-30T06:14:06.669Z,3.50
2023-04-30T06:19:09.176Z,3.20
2023-04-30T06:24:11.628Z,3.87
2023-04-30T06:29:14.143Z,3.33
2023-04-30T06:34:16.814Z,3.00
2023-04-30T06:39:19.302Z,3.80
2023-04-30T06:44:21.822Z,3.47
2023-04-30T06:49:24.307Z,3.97
2023-04-30T06:54:27.751Z,2.57
2023-04-30T06:59:30.338Z,4.50
2023-04-30T07:04:32.983Z,3.50
2023-04-30T07:09:35.454Z,3.30
2023-04-30T07:14:38.017Z,3.53
2023-04-30T07:19:40.604Z,3.23
2023-04-30T07:24:43.074Z,3.13
2023-04-30T07:29:45.747Z,3.07
2023-04-30T07:34:48.762Z,3.03
2023-04-30T07:39:51.308Z,3.13
2023-04-30T07:44:53.975Z,3.50
2023-04-30T07:49:57.396Z,3.53
2023-04-30T07:55:00.218Z,2.33
2023-04-30T08:00:02.765Z,3.03
2023-04-30T08:05:14.660Z,2.57
2023-04-30T08:10:17.268Z,2.27
2023-04-30T08:15:21.979Z,2.40
2023-04-30T08:20:24.645Z,2.57
2023-04-30T08:25:27.530Z,2.53
2023-04-30T08:30:30.041Z,2.97
2023-04-30T08:35:32.545Z,3.40
2023-04-30T08:40:50.454Z,3.13
2023-04-30T08:45:54.067Z,2.17
2023-04-30T08:50:56.586Z,2.30
2023-04-30T08:55:59.245Z,1.80
2023-04-30T09:01:02.572Z,2.27
2023-04-30T09:06:05.385Z,2.23
2023-04-30T09:11:22.734Z,2.43
2023-04-30T09:16:27.212Z,2.67
2023-04-30T09:21:38.653Z,2.60
2023-04-30T09:26:41.121Z,2.07
2023-04-30T09:31:46.110Z,3.00
2023-04-30T09:36:55.536Z,2.30
2023-04-30T09:42:11.393Z,2.30
2023-04-30T09:47:19.800Z,1.90
2023-04-30T09:52:22.271Z,2.60
2023-04-30T09:57:25.659Z,2.40
2023-04-30T10:02:28.490Z,2.13
2023-04-30T10:07:36.422Z,1.50
2023-04-30T10:12:48.580Z,1.70
2023-04-30T10:17:57.879Z,2.30
2023-04-30T10:23:01.415Z,2.20
2023-04-30T10:28:04.961Z,2.40
2023-04-30T10:33:22.608Z,2.77
2023-04-30T10:38:27.958Z,2.37
2023-04-30T10:43:31.555Z,1.60
2023-04-30T10:48:35.631Z,1.70
2023-04-30T10:53:40.234Z,2.40
2023-04-30T10:58:44.194Z,2.20
2023-04-30T11:04:09.657Z,1.73
2023-04-30T11:09:12.229Z,2.57
2023-04-30T11:14:21.061Z,2.60
2023-04-30T11:19:25.112Z,1.90
2023-04-30T11:25:04.388Z,1.97
2023-04-30T11:30:15.348Z,1.77
2023-04-30T11:35:19.790Z,2.37
2023-04-30T11:40:22.320Z,2.00
2023-04-30T11:45:25.571Z,2.40
2023-04-30T11:50:33.797Z,2.63
2023-04-30T11:55:36.343Z,1.30
2023-04-30T12:00:38.891Z,2.40
2023-04-30T12:05:41.343Z,2.10
2023-04-30T12:10:44.448Z,3.47
2023-04-30T12:15:59.311Z,2.23
2023-04-30T12:21:01.983Z,2.47
2023-04-30T12:26:04.486Z,1.90
2023-04-30T12:31:06.960Z,2.10
2023-04-30T12:36:13.550Z,2.07
2023-04-30T12:41:17.533Z,2.00
2023-04-30T12:46:27.764Z,2.50
2023-04-30T12:51:33.180Z,2.33
2023-04-30T12:56:35.904Z,2.10
2023-04-30T13:01:45.423Z,1.73
2023-04-30T13:06:48.012Z,2.53
2023-04-30T13:11:50.992Z,1.70
2023-04-30T13:16:54.328Z,1.43
2023-04-30T13:21:57.686Z,2.60
2023-04-30T13:27:00.164Z,2.70
2023-04-30T13:32:02.831Z,2.20
2023-04-30T13:37:05.228Z,2.60
2023-04-30T13:42:07.670Z,2.30
2023-04-30T13:47:11.050Z,2.33
2023-04-30T13:52:13.591Z,2.10
2023-04-30T13:57:16.160Z,2.77
2023-04-30T14:02:18.953Z,2.80
2023-04-30T14:07:21.692Z,1.97
2023-04-30T14:12:24.796Z,2.40
2023-04-30T14:17:27.819Z,2.07
2023-04-30T14:22:30.357Z,2.40
2023-04-30T14:27:32.845Z,1.37
2023-04-30T14:32:35.544Z,2.93
2023-04-30T14:37:38.066Z,2.87
2023-04-30T14:42:40.625Z,3.00
2023-04-30T14:47:43.316Z,2.23
2023-04-30T14:52:47.182Z,2.57
2023-04-30T14:57:49.888Z,2.60
2023-04-30T15:02:52.433Z,2.37
2023-04-30T15:07:55.086Z,1.97
2023-04-30T15:12:57.724Z,2.43
2023-04-30T15:18:01.862Z,2.00
2023-04-30T15:23:04.334Z,2.40
2023-04-30T15:28:07.106Z,2.87
2023-04-30T15:33:09.600Z,1.30
2023-04-30T15:38:12.212Z,1.47
2023-04-30T15:43:14.883Z,3.07
2023-04-30T15:48:18.813Z,2.37
2023-04-30T15:53:21.267Z,1.63
2023-04-30T15:58:23.874Z,1.90
2023-04-30T16:03:26.490Z,2.70
2023-04-30T16:08:29.679Z,1.93
2023-04-30T16:13:32.260Z,2.37
2023-04-30T16:18:35.113Z,2.20
2023-04-30T16:23:38.455Z,2.13
2023-04-30T16:28:40.859Z,2.47
2023-04-30T16:33:43.596Z,2.47
2023-04-30T16:38:46.823Z,2.03
2023-04-30T16:43:49.322Z,2.03
2023-04-30T16:48:51.817Z,2.80
2023-04-30T16:53:54.268Z,2.30
2023-04-30T16:58:56.900Z,1.80
2023-04-30T17:03:59.386Z,2.10
2023-04-30T17:09:02.115Z,2.03
2023-04-30T17:14:04.756Z,1.93
2023-04-30T17:19:07.970Z,2.47
2023-04-30T17:24:10.423Z,2.53
2023-04-30T17:29:13.635Z,2.63
2023-04-30T17:34:16.514Z,2.07
2023-04-30T17:39:19.345Z,1.93
2023-04-30T17:44:21.932Z,2.33
2023-04-30T17:49:25.855Z,1.80
2023-04-30T17:54:31.472Z,2.43
2023-04-30T17:59:34.090Z,1.90
2023-04-30T18:04:36.814Z,2.90
2023-04-30T18:09:39.272Z,2.83
2023-04-30T18:14:41.819Z,3.03
2023-04-30T18:19:46.420Z,3.17
2023-04-30T18:24:48.824Z,2.40
2023-04-30T18:29:52.145Z,4.40
2023-04-30T18:34:54.932Z,4.50
2023-04-30T18:39:57.884Z,4.80
2023-04-30T18:45:01.127Z,4.17
2023-04-30T18:50:04.221Z,4.80
2023-04-30T18:55:07.657Z,4.53
2023-04-30T19:00:13.079Z,4.37
2023-04-30T19:05:15.760Z,5.17
2023-04-30T19:10:18.399Z,4.33
2023-04-30T19:15:20.910Z,5.73
2023-04-30T19:20:23.382Z,5.53
2023-04-30T19:25:26.830Z,6.80
2023-04-30T19:30:29.388Z,6.67
2023-04-30T19:35:31.940Z,6.13
2023-04-30T19:40:34.519Z,7.83
2023-04-30T19:45:37.061Z,10.37
2023-04-30T19:50:44.916Z,9.30
2023-04-30T19:55:47.708Z,9.27
2023-04-30T20:00:50.177Z,10.97
2023-04-30T20:05:52.800Z,14.60
2023-04-30T20:10:56.290Z,17.60
2023-04-30T20:15:59.026Z,19.30
2023-04-30T20:21:01.565Z,20.83
2023-04-30T20:26:04.124Z,25.73
2023-04-30T20:31:07.485Z,13.40
2023-04-30T20:36:10.082Z,12.80
2023-04-30T20:41:12.548Z,10.77
2023-04-30T20:46:16.197Z,16.60
2023-04-30T20:51:18.788Z,15.97
2023-04-30T20:56:21.601Z,17.77
2023-04-30T21:01:24.127Z,13.83
2023-04-30T21:06:28.024Z,12.57
2023-04-30T21:11:30.786Z,7.27
2023-04-30T21:16:35.165Z,5.53
2023-04-30T21:21:37.597Z,6.40
2023-04-30T21:26:40.137Z,8.43
2023-04-30T21:31:42.717Z,4.70
2023-04-30T21:36:45.123Z,7.70
2023-04-30T21:41:47.476Z,7.57
2023-04-30T21:46:50.212Z,6.13
2023-04-30T21:51:53.105Z,5.73
2023-04-30T21:56:55.626Z,3.47
2023-04-30T22:02:01.504Z,4.33
2023-04-30T22:07:05.967Z,5.03
2023-04-30T22:12:09.287Z,3.50
2023-04-30T22:17:12.769Z,3.73
2023-04-30T22:22:15.571Z,5.70
2023-04-30T22:27:18.136Z,5.43
2023-04-30T22:32:20.817Z,4.90
2023-04-30T22:37:24.463Z,5.87
2023-04-30T22:42:27.077Z,4.83
2023-04-30T22:47:29.717Z,4.50
2023-04-30T22:52:33.229Z,5.10
2023-04-30T22:57:35.638Z,4.97
2023-04-30T23:02:38.103Z,5.43
2023-04-30T23:07:40.779Z,5.63
2023-04-30T23:12:43.232Z,4.63
2023-04-30T23:17:47.090Z,5.97
2023-04-30T23:22:50.185Z,6.67
2023-04-30T23:27:52.629Z,6.00
2023-04-30T23:32:55.682Z,6.83
2023-04-30T23:37:58.191Z,5.57
2023-04-30T23:43:01.092Z,6.13
2023-04-30T23:48:04.031Z,5.93
2023-04-30T23:53:06.540Z,6.27
2023-04-30T23:58:09.292Z,4.03
